createdAt,value
2022-07-25T00:00:05.104Z,4.30
2022-07-25T00:02:33.960Z,4.05
2022-07-25T00:05:03.124Z,4.43
2022-07-25T00:07:32.742Z,4.38
2022-07-25T00:10:00.904Z,4.25
2022-07-25T00:12:29.095Z,4.28
2022-07-25T00:14:57.269Z,4.22
2022-07-25T00:17:25.512Z,4.38
2022-07-25T00:19:53.639Z,4.45
2022-07-25T00:22:21.917Z,4.30
2022-07-25T00:24:51.474Z,4.18
2022-07-25T00:27:19.695Z,4.20
2022-07-25T00:29:47.997Z,4.28
2022-07-25T00:32:16.541Z,4.40
2022-07-25T00:34:44.721Z,4.57
2022-07-25T00:37:12.902Z,4.47
2022-07-25T00:39:41.349Z,4.65
2022-07-25T00:42:10.947Z,4.55
2022-07-25T00:44:39.057Z,4.35
2022-07-25T00:47:07.690Z,4.80
2022-07-25T00:49:35.857Z,4.25
2022-07-25T00:52:04.783Z,4.57
2022-07-25T00:54:33.522Z,4.32
2022-07-25T00:57:02.320Z,4.53
2022-07-25T00:59:31.893Z,4.57
2022-07-25T01:02:00.215Z,4.47
2022-07-25T01:04:32.227Z,4.22
2022-07-25T01:07:01.429Z,4.63
2022-07-25T01:09:29.763Z,4.60
2022-07-25T01:11:57.931Z,4.40
2022-07-25T01:14:26.142Z,4.70
2022-07-25T01:16:55.651Z,5.00
2022-07-25T01:19:23.807Z,4.93
2022-07-25T01:21:54.821Z,4.82
2022-07-25T01:24:23.053Z,4.60
2022-07-25T01:26:51.223Z,4.45
2022-07-25T01:29:19.402Z,4.93
2022-07-25T01:31:47.555Z,4.55
2022-07-25T01:34:15.801Z,4.65
2022-07-25T01:36:43.927Z,4.53
2022-07-25T01:39:13.473Z,4.75
2022-07-25T01:41:41.642Z,4.47
2022-07-25T01:44:10.042Z,4.70
2022-07-25T01:46:38.545Z,4.65
2022-07-25T01:49:06.977Z,4.68
2022-07-25T01:51:35.200Z,4.65
2022-07-25T01:54:03.842Z,4.90
2022-07-25T01:56:36.137Z,5.65
2022-07-25T01:59:04.347Z,5.40
2022-07-25T02:01:32.600Z,4.40
2022-07-25T02:04:00.992Z,4.97
2022-07-25T02:06:29.153Z,4.53
2022-07-25T02:08:57.330Z,4.90
2022-07-25T02:11:25.469Z,4.75
2022-07-25T02:13:54.934Z,4.88
2022-07-25T02:16:29.028Z,4.68
2022-07-25T02:18:57.844Z,4.88
2022-07-25T02:21:26.098Z,5.13
2022-07-25T02:23:54.277Z,4.78
2022-07-25T02:26:22.441Z,5.07
2022-07-25T02:28:51.411Z,4.90
2022-07-25T02:31:20.985Z,5.28
2022-07-25T02:33:49.232Z,4.78
2022-07-25T02:36:17.707Z,4.50
2022-07-25T02:38:45.925Z,4.65
2022-07-25T02:41:14.074Z,4.80
2022-07-25T02:43:42.192Z,4.60
2022-07-25T02:46:10.564Z,4.90
2022-07-25T02:48:40.111Z,4.18
2022-07-25T02:51:08.383Z,4.65
2022-07-25T02:53:55.966Z,4.53
2022-07-25T02:56:24.721Z,4.38
2022-07-25T02:58:52.837Z,4.88
2022-07-25T03:01:21.086Z,4.68
2022-07-25T03:03:50.634Z,4.80
2022-07-25T03:06:18.929Z,4.65
2022-07-25T03:08:47.166Z,5.00
2022-07-25T03:11:16.621Z,4.63
2022-07-25T03:13:44.809Z,5.15
2022-07-25T03:16:13.010Z,4.55
2022-07-25T03:18:41.350Z,4.78
2022-07-25T03:21:10.913Z,4.72
2022-07-25T03:23:39.099Z,5.05
2022-07-25T03:26:07.809Z,5.18
2022-07-25T03:28:35.972Z,4.72
2022-07-25T03:31:05.211Z,4.60
2022-07-25T03:33:33.327Z,5.15
2022-07-25T03:36:01.499Z,5.15
2022-07-25T03:38:31.415Z,5.30
2022-07-25T03:40:59.552Z,5.55
2022-07-25T03:43:27.704Z,5.50
2022-07-25T03:45:55.860Z,5.93
2022-07-25T03:48:24.195Z,5.93
2022-07-25T03:50:52.372Z,5.95
2022-07-25T03:53:20.598Z,6.00
2022-07-25T03:55:50.126Z,5.78
2022-07-25T03:58:18.309Z,6.10
2022-07-25T04:00:47.857Z,5.90
2022-07-25T04:03:16.396Z,5.80
2022-07-25T04:05:47.641Z,5.80
2022-07-25T04:08:16.111Z,5.97
2022-07-25T04:10:44.243Z,6.55
2022-07-25T04:13:13.729Z,5.93
2022-07-25T04:15:41.879Z,5.80
2022-07-25T04:18:10.165Z,5.50
2022-07-25T04:20:44.600Z,5.78
2022-07-25T04:23:12.784Z,5.25
2022-07-25T04:25:41.018Z,5.63
2022-07-25T04:28:09.207Z,5.65
2022-07-25T04:30:38.801Z,5.88
2022-07-25T04:33:07.696Z,5.57
2022-07-25T04:35:36.518Z,5.47
2022-07-25T04:38:08.869Z,5.82
2022-07-25T04:40:40.749Z,5.53
2022-07-25T04:43:09.433Z,5.65
2022-07-25T04:45:39.033Z,5.45
2022-07-25T04:48:07.979Z,5.68
2022-07-25T04:50:36.175Z,6.05
2022-07-25T04:53:04.434Z,6.13
2022-07-25T04:55:33.347Z,5.93
2022-07-25T04:58:01.836Z,6.10
2022-07-25T05:00:29.999Z,5.70
2022-07-25T05:02:59.492Z,6.07
2022-07-25T05:05:27.757Z,5.93
2022-07-25T05:07:58.330Z,6.20
2022-07-25T05:10:27.053Z,6.10
2022-07-25T05:12:55.476Z,6.15
2022-07-25T05:15:24.263Z,6.10
2022-07-25T05:17:52.632Z,6.40
2022-07-25T05:20:22.627Z,6.78
2022-07-25T05:22:50.850Z,6.78
2022-07-25T05:25:19.152Z,6.13
2022-07-25T05:27:47.711Z,6.70
2022-07-25T05:30:16.382Z,6.20
2022-07-25T05:32:44.652Z,6.53
2022-07-25T05:35:13.193Z,6.35
2022-07-25T05:37:42.664Z,6.18
2022-07-25T05:40:11.144Z,6.22
2022-07-25T05:42:39.292Z,6.13
2022-07-25T05:45:08.552Z,6.68
2022-07-25T05:47:36.931Z,6.10
2022-07-25T05:50:06.209Z,6.00
2022-07-25T05:52:35.542Z,6.60
2022-07-25T05:55:14.240Z,6.72
2022-07-25T05:57:49.636Z,6.40
2022-07-25T06:00:28.472Z,6.38
2022-07-25T06:03:03.542Z,6.13
2022-07-25T06:05:32.752Z,7.63
2022-07-25T06:08:00.899Z,5.68
2022-07-25T06:10:30.486Z,6.88
2022-07-25T06:13:00.969Z,6.68
2022-07-25T06:15:29.798Z,6.20
2022-07-25T06:17:58.221Z,6.75
2022-07-25T06:20:27.527Z,6.03
2022-07-25T06:22:55.782Z,5.72
2022-07-25T06:25:24.353Z,6.43
2022-07-25T06:27:53.843Z,6.75
2022-07-25T06:30:22.076Z,6.47
2022-07-25T06:32:50.762Z,7.00
2022-07-25T06:35:19.489Z,6.82
2022-07-25T06:37:48.795Z,6.60
2022-07-25T06:40:17.048Z,6.68
2022-07-25T06:42:46.913Z,7.18
2022-07-25T06:45:17.084Z,5.88
2022-07-25T06:47:45.933Z,6.90
2022-07-25T06:50:15.588Z,6.20
2022-07-25T06:52:44.158Z,6.47
2022-07-25T06:55:13.964Z,6.90
2022-07-25T06:57:42.523Z,6.88
2022-07-25T07:00:13.454Z,6.75
2022-07-25T07:02:56.112Z,6.45
2022-07-25T07:05:25.069Z,6.97
2022-07-25T07:07:53.787Z,7.25
2022-07-25T07:10:22.565Z,7.00
2022-07-25T07:12:51.404Z,7.90
2022-07-25T07:15:19.913Z,7.00
2022-07-25T07:17:48.061Z,6.57
2022-07-25T07:20:17.672Z,6.65
2022-07-25T07:22:47.247Z,6.88
2022-07-25T07:25:20.943Z,6.85
2022-07-25T07:27:51.171Z,6.75
2022-07-25T07:30:24.077Z,6.80
2022-07-25T07:32:55.407Z,6.85
2022-07-25T07:35:25.392Z,6.53
2022-07-25T07:37:55.634Z,6.63
2022-07-25T07:40:25.112Z,6.05
2022-07-25T07:42:53.357Z,6.43
2022-07-25T07:45:23.104Z,6.68
2022-07-25T07:47:53.605Z,6.07
2022-07-25T07:50:26.150Z,6.30
2022-07-25T07:52:56.022Z,6.18
2022-07-25T07:55:41.906Z,6.55
2022-07-25T07:58:10.123Z,6.30
2022-07-25T08:00:39.914Z,6.68
2022-07-25T08:03:09.464Z,6.75
2022-07-25T08:05:41.629Z,6.88
2022-07-25T08:08:11.153Z,5.78
2022-07-25T08:10:40.938Z,6.10
2022-07-25T08:13:15.462Z,6.15
2022-07-25T08:15:44.061Z,6.35
2022-07-25T08:18:17.457Z,6.43
2022-07-25T08:20:48.199Z,6.30
2022-07-25T08:23:16.707Z,6.30
2022-07-25T08:25:45.991Z,6.35
2022-07-25T08:28:15.049Z,6.00
2022-07-25T08:30:43.498Z,6.47
2022-07-25T08:33:13.423Z,6.60
2022-07-25T08:35:42.126Z,6.35
2022-07-25T08:38:12.002Z,6.03
2022-07-25T08:40:40.337Z,5.90
2022-07-25T08:43:12.184Z,6.32
2022-07-25T08:45:46.461Z,5.95
2022-07-25T08:48:15.034Z,6.43
2022-07-25T08:50:43.945Z,5.70
2022-07-25T08:53:32.731Z,5.90
2022-07-25T08:56:04.211Z,6.10
2022-07-25T08:58:36.697Z,6.20
2022-07-25T09:01:04.945Z,6.50
2022-07-25T09:03:40.265Z,5.93
2022-07-25T09:06:18.752Z,6.35
2022-07-25T09:08:59.455Z,6.00
2022-07-25T09:11:33.365Z,5.90
2022-07-25T09:14:04.946Z,6.15
2022-07-25T09:16:35.314Z,6.43
2022-07-25T09:19:08.384Z,6.32
2022-07-25T09:21:36.554Z,6.50
2022-07-25T09:24:15.759Z,6.70
2022-07-25T09:26:48.304Z,6.68
2022-07-25T09:29:21.454Z,6.70
2022-07-25T09:31:50.511Z,6.20
2022-07-25T09:34:30.997Z,6.80
2022-07-25T09:36:59.245Z,6.15
2022-07-25T09:39:45.835Z,7.35
2022-07-25T09:42:20.935Z,6.15
2022-07-25T09:45:04.160Z,6.47
2022-07-25T09:47:33.587Z,6.57
2022-07-25T09:50:02.678Z,6.30
2022-07-25T09:52:31.505Z,5.82
2022-07-25T09:55:03.672Z,6.25
2022-07-25T09:57:31.888Z,6.18
2022-07-25T10:00:01.451Z,6.28
2022-07-25T10:02:42.517Z,5.95
2022-07-25T10:05:15.434Z,5.70
2022-07-25T10:07:46.882Z,5.78
2022-07-25T10:10:30.308Z,5.93
2022-07-25T10:13:07.875Z,6.18
2022-07-25T10:15:47.045Z,5.78
2022-07-25T10:18:16.694Z,5.22
2022-07-25T10:20:45.326Z,6.40
2022-07-25T10:23:25.121Z,5.68
2022-07-25T10:26:08.582Z,5.45
2022-07-25T10:28:39.936Z,5.88
2022-07-25T10:31:21.728Z,6.00
2022-07-25T10:33:52.882Z,5.47
2022-07-25T10:36:22.598Z,5.68
2022-07-25T10:38:53.741Z,5.85
2022-07-25T10:41:26.952Z,5.35
2022-07-25T10:44:00.683Z,5.47
2022-07-25T10:46:31.175Z,6.10
2022-07-25T10:49:01.506Z,5.70
2022-07-25T10:51:31.107Z,5.70
2022-07-25T10:53:59.576Z,5.57
2022-07-25T10:56:29.819Z,5.18
2022-07-25T10:58:59.310Z,5.25
2022-07-25T11:01:29.356Z,5.63
2022-07-25T11:04:00.320Z,5.55
2022-07-25T11:06:33.982Z,5.40
2022-07-25T11:09:03.405Z,5.13
2022-07-25T11:11:37.730Z,5.50
2022-07-25T11:14:06.635Z,6.38
2022-07-25T11:16:34.878Z,5.32
2022-07-25T11:19:03.194Z,5.35
2022-07-25T11:21:31.545Z,5.47
2022-07-25T11:23:59.727Z,5.00
2022-07-25T11:26:27.951Z,5.13
2022-07-25T11:28:58.506Z,5.30
2022-07-25T11:31:27.655Z,5.72
2022-07-25T11:33:56.043Z,5.43
2022-07-25T11:36:24.483Z,5.75
2022-07-25T11:38:53.477Z,5.43
2022-07-25T11:41:29.903Z,5.78
2022-07-25T11:43:59.431Z,5.97
2022-07-25T11:46:27.589Z,6.07
2022-07-25T11:49:06.082Z,5.50
2022-07-25T11:51:38.395Z,5.80
2022-07-25T11:54:11.663Z,5.30
2022-07-25T11:56:43.451Z,5.40
2022-07-25T11:59:13.313Z,5.63
2022-07-25T12:01:43.486Z,6.05
2022-07-25T12:04:14.207Z,5.85
2022-07-25T12:06:43.809Z,5.82
2022-07-25T12:09:19.055Z,4.97
2022-07-25T12:11:48.669Z,5.80
2022-07-25T12:14:18.482Z,5.50
2022-07-25T12:16:46.889Z,4.80
2022-07-25T12:19:22.958Z,4.32
2022-07-25T12:21:51.151Z,3.90
2022-07-25T12:24:19.315Z,3.92
2022-07-25T12:26:47.536Z,4.15
2022-07-25T12:29:17.126Z,4.72
2022-07-25T12:31:45.307Z,4.90
2022-07-25T12:34:14.044Z,5.13
2022-07-25T12:36:44.993Z,4.78
2022-07-25T12:39:13.355Z,4.20
2022-07-25T12:41:42.520Z,4.03
2022-07-25T12:44:11.056Z,3.63
2022-07-25T12:46:48.810Z,3.63
2022-07-25T12:49:17.956Z,3.70
2022-07-25T12:51:46.315Z,3.67
2022-07-25T12:54:21.767Z,3.78
2022-07-25T12:56:50.748Z,3.60
2022-07-25T12:59:19.010Z,3.67
2022-07-25T13:01:48.591Z,3.70
2022-07-25T13:04:16.876Z,3.92
2022-07-25T13:06:45.328Z,4.13
2022-07-25T13:09:13.688Z,3.75
2022-07-25T13:11:42.366Z,3.50
2022-07-25T13:14:10.714Z,3.90
2022-07-25T13:16:39.006Z,4.25
2022-07-25T13:19:08.963Z,3.97
2022-07-25T13:21:37.956Z,4.20
2022-07-25T13:24:08.176Z,4.35
2022-07-25T13:26:37.388Z,3.83
2022-07-25T13:29:08.615Z,4.32
2022-07-25T13:31:38.482Z,4.63
2022-07-25T13:34:08.434Z,3.92
2022-07-25T13:36:38.024Z,4.30
2022-07-25T13:39:07.161Z,4.28
2022-07-25T13:41:35.666Z,4.53
2022-07-25T13:44:03.948Z,4.63
2022-07-25T13:46:32.854Z,4.40
2022-07-25T13:49:01.113Z,4.50
2022-07-25T13:51:30.649Z,4.40
2022-07-25T13:53:58.832Z,4.28
2022-07-25T13:56:26.985Z,4.72
2022-07-25T13:58:55.096Z,4.40
2022-07-25T14:01:23.859Z,4.13
2022-07-25T14:03:52.103Z,4.25
2022-07-25T14:06:20.235Z,4.25
2022-07-25T14:08:49.897Z,4.63
2022-07-25T14:11:18.103Z,4.38
2022-07-25T14:13:46.377Z,4.82
2022-07-25T14:16:17.352Z,4.75
2022-07-25T14:18:45.681Z,4.70
2022-07-25T14:21:13.951Z,4.85
2022-07-25T14:23:42.479Z,4.43
2022-07-25T14:26:11.929Z,5.05
2022-07-25T14:28:40.162Z,4.97
2022-07-25T14:31:08.628Z,4.55
2022-07-25T14:33:39.839Z,5.00
2022-07-25T14:36:08.648Z,4.53
2022-07-25T14:38:37.197Z,4.50
2022-07-25T14:41:10.514Z,4.32
2022-07-25T14:43:42.355Z,4.10
2022-07-25T14:46:10.883Z,4.13
2022-07-25T14:48:39.656Z,4.43
2022-07-25T14:51:08.530Z,4.25
2022-07-25T14:53:37.344Z,4.25
2022-07-25T14:56:07.045Z,4.30
2022-07-25T14:58:36.068Z,4.32
2022-07-25T15:01:06.302Z,4.78
2022-07-25T15:03:34.509Z,4.80
2022-07-25T15:06:03.004Z,4.43
2022-07-25T15:08:31.231Z,4.78
2022-07-25T15:10:59.401Z,4.47
2022-07-25T15:13:31.989Z,4.45
2022-07-25T15:16:01.518Z,4.90
2022-07-25T15:18:31.458Z,4.72
2022-07-25T15:20:59.733Z,4.68
2022-07-25T15:23:30.474Z,4.55
2022-07-25T15:26:02.452Z,4.82
2022-07-25T15:28:31.831Z,4.88
2022-07-25T15:31:00.286Z,4.68
2022-07-25T15:33:29.978Z,4.47
2022-07-25T15:35:58.191Z,4.95
2022-07-25T15:38:26.440Z,4.88
2022-07-25T15:40:54.670Z,4.80
2022-07-25T15:43:22.870Z,5.03
2022-07-25T15:45:51.277Z,5.00
2022-07-25T15:48:19.678Z,5.10
2022-07-25T15:50:51.577Z,4.82
2022-07-25T15:53:20.098Z,5.07
2022-07-25T15:55:48.526Z,4.72
2022-07-25T15:58:16.750Z,4.78
2022-07-25T16:00:45.117Z,4.93
2022-07-25T16:03:13.851Z,4.63
2022-07-25T16:05:44.034Z,4.90
2022-07-25T16:08:13.674Z,4.50
2022-07-25T16:10:41.943Z,4.38
2022-07-25T16:13:10.158Z,4.15
2022-07-25T16:15:38.599Z,4.60
2022-07-25T16:18:07.355Z,4.70
2022-07-25T16:20:35.563Z,4.47
2022-07-25T16:23:03.965Z,4.13
2022-07-25T16:25:33.518Z,4.30
2022-07-25T16:28:01.723Z,4.38
2022-07-25T16:30:29.972Z,4.10
2022-07-25T16:32:58.137Z,4.20
2022-07-25T16:35:26.529Z,3.90
2022-07-25T16:37:54.833Z,3.90
2022-07-25T16:40:28.718Z,3.78
2022-07-25T16:43:00.305Z,4.20
2022-07-25T16:45:29.026Z,3.90
2022-07-25T16:47:57.227Z,5.00
2022-07-25T16:50:25.382Z,4.00
2022-07-25T16:52:54.475Z,3.78
2022-07-25T16:55:22.749Z,3.47
2022-07-25T16:57:51.179Z,3.55
2022-07-25T17:00:20.913Z,3.83
2022-07-25T17:02:50.062Z,3.42
2022-07-25T17:05:18.325Z,3.25
2022-07-25T17:07:48.616Z,3.75
2022-07-25T17:10:16.963Z,3.42
2022-07-25T17:12:45.175Z,4.13
2022-07-25T17:15:13.667Z,4.07
2022-07-25T17:17:43.322Z,3.75
2022-07-25T17:20:12.304Z,4.00
2022-07-25T17:22:40.509Z,3.72
2022-07-25T17:25:09.449Z,3.33
2022-07-25T17:27:37.785Z,3.55
2022-07-25T17:30:07.139Z,3.20
2022-07-25T17:32:35.355Z,3.30
2022-07-25T17:35:05.703Z,3.58
2022-07-25T17:37:33.858Z,3.40
2022-07-25T17:40:02.422Z,3.05
2022-07-25T17:42:30.615Z,2.80
2022-07-25T17:44:58.839Z,2.97
2022-07-25T17:47:27.357Z,2.70
2022-07-25T17:49:55.536Z,2.42
2022-07-25T17:52:25.080Z,2.40
2022-07-25T17:54:53.803Z,1.92
2022-07-25T17:57:22.303Z,2.00
2022-07-25T17:59:50.690Z,2.05
2022-07-25T18:02:19.191Z,1.80
2022-07-25T18:04:47.434Z,2.00
2022-07-25T18:07:15.759Z,1.73
2022-07-25T18:09:45.226Z,1.95
2022-07-25T18:12:13.379Z,1.90
2022-07-25T18:14:41.865Z,1.80
2022-07-25T18:17:10.560Z,1.83
2022-07-25T18:19:38.729Z,1.50
2022-07-25T18:22:07.183Z,1.38
2022-07-25T18:24:35.450Z,1.70
2022-07-25T18:27:05.936Z,1.52
2022-07-25T18:29:36.962Z,1.52
2022-07-25T18:32:05.662Z,1.40
2022-07-25T18:34:33.956Z,1.55
2022-07-25T18:37:02.347Z,1.42
2022-07-25T18:39:30.740Z,1.30
2022-07-25T18:41:58.955Z,1.20
2022-07-25T18:44:28.735Z,1.27
2022-07-25T18:46:56.930Z,1.20
2022-07-25T18:49:27.138Z,1.48
2022-07-25T18:51:55.398Z,1.45
2022-07-25T18:54:23.952Z,1.27
2022-07-25T18:56:52.140Z,1.35
2022-07-25T18:59:20.443Z,1.30
2022-07-25T19:01:51.034Z,1.33
2022-07-25T19:04:19.626Z,1.02
2022-07-25T19:06:47.979Z,1.20
2022-07-25T19:09:16.213Z,0.90
2022-07-25T19:11:44.332Z,1.02
2022-07-25T19:14:12.641Z,1.33
2022-07-25T19:16:41.540Z,1.20
2022-07-25T19:19:11.617Z,1.23
2022-07-25T19:21:39.814Z,1.08
2022-07-25T19:24:08.667Z,1.48
2022-07-25T19:26:36.982Z,1.00
2022-07-25T19:29:07.377Z,1.27
2022-07-25T19:31:37.725Z,0.98
2022-07-25T19:34:06.427Z,0.85
2022-07-25T19:36:36.237Z,1.20
2022-07-25T19:39:05.992Z,1.00
2022-07-25T19:41:34.577Z,1.15
2022-07-25T19:44:02.737Z,1.05
2022-07-25T19:46:33.528Z,1.00
2022-07-25T19:49:04.145Z,0.90
2022-07-25T19:51:33.353Z,1.27
2022-07-25T19:54:04.284Z,1.02
2022-07-25T19:56:34.170Z,1.00
2022-07-25T19:59:03.276Z,1.30
2022-07-25T20:01:34.208Z,1.60
2022-07-25T20:04:03.089Z,1.10
2022-07-25T20:06:31.610Z,1.08
2022-07-25T20:08:59.952Z,1.33
2022-07-25T20:11:29.565Z,0.98
2022-07-25T20:13:57.729Z,0.98
2022-07-25T20:16:25.990Z,1.27
2022-07-25T20:18:54.244Z,0.80
2022-07-25T20:21:22.716Z,1.10
2022-07-25T20:23:50.966Z,1.23
2022-07-25T20:26:19.448Z,1.13
2022-07-25T20:28:48.950Z,0.88
2022-07-25T20:31:18.194Z,1.33
2022-07-25T20:33:46.483Z,0.82
2022-07-25T20:36:14.765Z,0.90
2022-07-25T20:38:42.947Z,1.00
2022-07-25T20:41:12.616Z,0.82
2022-07-25T20:43:41.475Z,0.98
2022-07-25T20:46:11.154Z,1.23
2022-07-25T20:48:39.450Z,1.50
2022-07-25T20:51:07.895Z,2.58
2022-07-25T20:53:36.190Z,1.30
2022-07-25T20:56:04.586Z,1.00
2022-07-25T20:58:32.812Z,1.35
2022-07-25T21:01:01.329Z,1.10
2022-07-25T21:03:30.972Z,1.67
2022-07-25T21:06:01.287Z,1.02
2022-07-25T21:08:29.486Z,1.10
2022-07-25T21:10:58.738Z,0.95
2022-07-25T21:13:26.973Z,0.90
2022-07-25T21:15:59.399Z,1.02
2022-07-25T21:18:27.654Z,1.10
2022-07-25T21:20:57.197Z,1.00
2022-07-25T21:23:26.362Z,1.10
2022-07-25T21:25:54.722Z,1.10
2022-07-25T21:28:22.994Z,1.20
2022-07-25T21:30:54.279Z,1.00
2022-07-25T21:33:22.821Z,1.00
2022-07-25T21:35:53.635Z,0.93
2022-07-25T21:38:26.109Z,1.02
2022-07-25T21:40:56.133Z,1.10
2022-07-25T21:43:24.399Z,1.23
2022-07-25T21:45:52.641Z,1.00
2022-07-25T21:48:43.087Z,1.23
2022-07-25T21:51:19.158Z,1.10
2022-07-25T21:53:53.047Z,1.20
2022-07-25T21:56:21.460Z,0.93
2022-07-25T21:58:49.914Z,1.73
2022-07-25T22:01:20.985Z,1.23
2022-07-25T22:03:49.324Z,1.20
2022-07-25T22:06:19.019Z,1.20
2022-07-25T22:08:47.198Z,1.00
2022-07-25T22:11:38.502Z,1.27
2022-07-25T22:14:05.715Z,1.40
2022-07-25T22:16:33.857Z,1.77
2022-07-25T22:19:02.200Z,1.45
2022-07-25T22:21:30.683Z,1.23
2022-07-25T22:23:58.804Z,1.08
2022-07-25T22:26:28.479Z,0.90
2022-07-25T22:28:56.700Z,1.20
2022-07-25T22:31:24.913Z,1.00
2022-07-25T22:33:53.104Z,1.27
2022-07-25T22:36:21.709Z,1.02
2022-07-25T22:38:50.321Z,1.10
2022-07-25T22:41:18.485Z,1.20
2022-07-25T22:43:53.128Z,1.13
2022-07-25T22:46:27.133Z,1.33
2022-07-25T22:48:55.400Z,1.05
2022-07-25T22:51:24.478Z,1.00
2022-07-25T22:53:52.801Z,1.50
2022-07-25T22:56:21.237Z,1.80
2022-07-25T22:58:51.036Z,2.15
2022-07-25T23:01:19.495Z,2.08
2022-07-25T23:03:49.855Z,1.73
2022-07-25T23:06:18.906Z,1.35
2022-07-25T23:08:47.096Z,1.40
2022-07-25T23:11:15.290Z,1.38
2022-07-25T23:13:43.660Z,1.40
2022-07-25T23:16:13.271Z,1.70
2022-07-25T23:18:41.553Z,1.30
2022-07-25T23:21:09.898Z,1.60
2022-07-25T23:23:38.358Z,1.45
2022-07-25T23:26:06.493Z,1.60
2022-07-25T23:28:34.621Z,1.60
2022-07-25T23:31:02.801Z,1.58
2022-07-25T23:33:32.378Z,1.55
2022-07-25T23:36:00.603Z,1.67
2022-07-25T23:38:28.754Z,2.42
2022-07-25T23:40:56.947Z,2.00
2022-07-25T23:43:56.453Z,2.08
2022-07-25T23:46:13.363Z,2.58
2022-07-25T23:48:42.926Z,3.00
2022-07-25T23:51:11.109Z,2.95
2022-07-25T23:53:39.304Z,3.15
2022-07-25T23:56:07.664Z,2.40
2022-07-25T23:58:35.799Z,2.60
